sensor_id;sensor_type;location;lat;lon;timestamp;temperature;humidity
45233;DHT22;30969;51.052;17.056;2023-03-11T00:01:55;12.00;66.80
45233;DHT22;30969;51.052;17.056;2023-03-11T00:06:59;12.00;66.90
45233;DHT22;30969;51.052;17.056;2023-03-11T00:12:04;12.00;66.80
45233;DHT22;30969;51.052;17.056;2023-03-11T00:17:08;11.90;66.50
45233;DHT22;30969;51.052;17.056;2023-03-11T00:22:12;11.90;65.60
45233;DHT22;30969;51.052;17.056;2023-03-11T00:27:16;11.80;65.50
45233;DHT22;30969;51.052;17.056;2023-03-11T00:32:20;11.70;65.50
45233;DHT22;30969;51.052;17.056;2023-03-11T00:37:25;11.60;65.20
45233;DHT22;30969;51.052;17.056;2023-03-11T00:42:28;11.60;65.00
45233;DHT22;30969;51.052;17.056;2023-03-11T00:47:31;11.60;64.90
45233;DHT22;30969;51.052;17.056;2023-03-11T00:52:36;11.50;65.10
45233;DHT22;30969;51.052;17.056;2023-03-11T00:57:40;11.40;64.30
45233;DHT22;30969;51.052;17.056;2023-03-11T01:02:44;11.40;64.50
45233;DHT22;30969;51.052;17.056;2023-03-11T01:07:49;11.20;64.40
45233;DHT22;30969;51.052;17.056;2023-03-11T01:12:53;11.20;64.60
45233;DHT22;30969;51.052;17.056;2023-03-11T01:17:57;11.20;64.70
45233;DHT22;30969;51.052;17.056;2023-03-11T01:23:02;11.20;65.10
45233;DHT22;30969;51.052;17.056;2023-03-11T01:28:06;11.20;65.40
45233;DHT22;30969;51.052;17.056;2023-03-11T01:33:14;11.20;65.60
45233;DHT22;30969;51.052;17.056;2023-03-11T01:38:19;11.10;65.80
45233;DHT22;30969;51.052;17.056;2023-03-11T01:43:46;10.90;66.80
45233;DHT22;30969;51.052;17.056;2023-03-11T01:48:52;10.80;67.50
45233;DHT22;30969;51.052;17.056;2023-03-11T01:54:00;10.80;67.70
45233;DHT22;30969;51.052;17.056;2023-03-11T01:59:06;10.90;67.70
45233;DHT22;30969;51.052;17.056;2023-03-11T02:04:10;11.00;67.80
45233;DHT22;30969;51.052;17.056;2023-03-11T02:09:15;11.00;68.70
45233;DHT22;30969;51.052;17.056;2023-03-11T02:14:19;11.00;67.80
45233;DHT22;30969;51.052;17.056;2023-03-11T02:19:27;11.00;67.80
45233;DHT22;30969;51.052;17.056;2023-03-11T02:24:39;10.90;67.90
45233;DHT22;30969;51.052;17.056;2023-03-11T02:29:48;10.90;68.30
45233;DHT22;30969;51.052;17.056;2023-03-11T02:34:53;10.80;68.40
45233;DHT22;30969;51.052;17.056;2023-03-11T02:40:36;10.80;68.70
45233;DHT22;30969;51.052;17.056;2023-03-11T02:45:43;10.80;68.90
45233;DHT22;30969;51.052;17.056;2023-03-11T02:50:47;10.80;68.90
45233;DHT22;30969;51.052;17.056;2023-03-11T02:55:51;10.90;68.90
45233;DHT22;30969;51.052;17.056;2023-03-11T03:00:55;10.80;68.80
45233;DHT22;30969;51.052;17.056;2023-03-11T03:05:59;10.80;68.80
45233;DHT22;30969;51.052;17.056;2023-03-11T03:11:03;10.70;68.90
45233;DHT22;30969;51.052;17.056;2023-03-11T03:16:08;10.60;68.90
45233;DHT22;30969;51.052;17.056;2023-03-11T03:21:11;10.20;65.40
45233;DHT22;30969;51.052;17.056;2023-03-11T03:26:15;9.60;63.40
45233;DHT22;30969;51.052;17.056;2023-03-11T03:31:20;8.90;62.40
45233;DHT22;30969;51.052;17.056;2023-03-11T03:36:23;8.30;63.50
45233;DHT22;30969;51.052;17.056;2023-03-11T03:41:27;8.00;64.20
45233;DHT22;30969;51.052;17.056;2023-03-11T03:46:32;7.50;64.20
45233;DHT22;30969;51.052;17.056;2023-03-11T03:51:35;7.30;64.50
45233;DHT22;30969;51.052;17.056;2023-03-11T03:56:39;7.10;65.00
45233;DHT22;30969;51.052;17.056;2023-03-11T04:01:43;7.00;65.60
45233;DHT22;30969;51.052;17.056;2023-03-11T04:06:47;6.80;65.50
45233;DHT22;30969;51.052;17.056;2023-03-11T04:11:51;6.70;65.30
45233;DHT22;30969;51.052;17.056;2023-03-11T04:16:56;6.40;65.30
45233;DHT22;30969;51.052;17.056;2023-03-11T04:21:59;6.10;65.50
45233;DHT22;30969;51.052;17.056;2023-03-11T04:27:03;5.90;65.20
45233;DHT22;30969;51.052;17.056;2023-03-11T04:32:08;5.80;66.00
45233;DHT22;30969;51.052;17.056;2023-03-11T04:37:11;5.70;66.70
45233;DHT22;30969;51.052;17.056;2023-03-11T04:42:15;5.70;66.40
45233;DHT22;30969;51.052;17.056;2023-03-11T04:47:21;5.60;66.20
45233;DHT22;30969;51.052;17.056;2023-03-11T04:52:25;5.40;66.80
45233;DHT22;30969;51.052;17.056;2023-03-11T04:57:28;5.30;67.40
45233;DHT22;30969;51.052;17.056;2023-03-11T05:02:33;5.20;68.10
45233;DHT22;30969;51.052;17.056;2023-03-11T05:07:36;5.10;68.30
45233;DHT22;30969;51.052;17.056;2023-03-11T05:12:40;5.00;69.00
45233;DHT22;30969;51.052;17.056;2023-03-11T05:17:45;5.00;69.50
45233;DHT22;30969;51.052;17.056;2023-03-11T05:22:48;4.90;70.50
45233;DHT22;30969;51.052;17.056;2023-03-11T05:27:52;5.00;71.20
45233;DHT22;30969;51.052;17.056;2023-03-11T05:32:57;4.90;72.00
45233;DHT22;30969;51.052;17.056;2023-03-11T05:38:00;4.80;73.00
45233;DHT22;30969;51.052;17.056;2023-03-11T05:43:03;4.60;74.50
45233;DHT22;30969;51.052;17.056;2023-03-11T05:48:08;4.50;74.60
45233;DHT22;30969;51.052;17.056;2023-03-11T05:53:12;4.50;75.00
45233;DHT22;30969;51.052;17.056;2023-03-11T05:58:16;4.50;75.30
45233;DHT22;30969;51.052;17.056;2023-03-11T06:03:21;4.40;76.30
45233;DHT22;30969;51.052;17.056;2023-03-11T06:08:24;4.20;77.70
45233;DHT22;30969;51.052;17.056;2023-03-11T06:13:28;4.10;78.50
45233;DHT22;30969;51.052;17.056;2023-03-11T06:18:33;4.10;79.00
45233;DHT22;30969;51.052;17.056;2023-03-11T06:23:36;4.20;79.20
45233;DHT22;30969;51.052;17.056;2023-03-11T06:28:41;4.10;79.30
45233;DHT22;30969;51.052;17.056;2023-03-11T06:33:46;4.10;79.50
45233;DHT22;30969;51.052;17.056;2023-03-11T06:38:50;4.00;79.80
45233;DHT22;30969;51.052;17.056;2023-03-11T06:43:54;4.00;80.40
45233;DHT22;30969;51.052;17.056;2023-03-11T06:48:58;3.90;81.00
45233;DHT22;30969;51.052;17.056;2023-03-11T06:54:02;3.80;81.60
45233;DHT22;30969;51.052;17.056;2023-03-11T06:59:05;3.70;82.00
45233;DHT22;30969;51.052;17.056;2023-03-11T07:04:10;3.50;83.60
45233;DHT22;30969;51.052;17.056;2023-03-11T07:09:14;3.40;84.10
45233;DHT22;30969;51.052;17.056;2023-03-11T07:14:17;3.30;85.00
45233;DHT22;30969;51.052;17.056;2023-03-11T07:19:22;3.30;85.20
45233;DHT22;30969;51.052;17.056;2023-03-11T07:24:26;3.30;85.60
45233;DHT22;30969;51.052;17.056;2023-03-11T07:29:29;3.20;85.90
45233;DHT22;30969;51.052;17.056;2023-03-11T07:34:34;3.10;86.80
45233;DHT22;30969;51.052;17.056;2023-03-11T07:39:38;3.00;87.50
45233;DHT22;30969;51.052;17.056;2023-03-11T07:44:42;3.00;87.70
45233;DHT22;30969;51.052;17.056;2023-03-11T07:49:47;2.90;88.40
45233;DHT22;30969;51.052;17.056;2023-03-11T07:54:50;2.80;89.40
45233;DHT22;30969;51.052;17.056;2023-03-11T07:59:53;2.80;89.80
45233;DHT22;30969;51.052;17.056;2023-03-11T08:04:58;2.80;89.90
45233;DHT22;30969;51.052;17.056;2023-03-11T08:10:02;2.80;89.60
45233;DHT22;30969;51.052;17.056;2023-03-11T08:15:07;2.70;89.00
45233;DHT22;30969;51.052;17.056;2023-03-11T08:20:13;2.80;89.60
45233;DHT22;30969;51.052;17.056;2023-03-11T08:25:16;2.80;89.60
45233;DHT22;30969;51.052;17.056;2023-03-11T08:30:20;2.80;89.00
45233;DHT22;30969;51.052;17.056;2023-03-11T08:35:25;2.80;88.80
45233;DHT22;30969;51.052;17.056;2023-03-11T08:40:29;2.90;89.00
45233;DHT22;30969;51.052;17.056;2023-03-11T08:45:33;2.90;88.60
45233;DHT22;30969;51.052;17.056;2023-03-11T08:50:39;2.90;88.50
45233;DHT22;30969;51.052;17.056;2023-03-11T08:55:55;3.00;88.70
45233;DHT22;30969;51.052;17.056;2023-03-11T09:00:59;3.00;88.20
45233;DHT22;30969;51.052;17.056;2023-03-11T09:06:06;3.00;87.70
45233;DHT22;30969;51.052;17.056;2023-03-11T09:11:11;3.00;87.60
45233;DHT22;30969;51.052;17.056;2023-03-11T09:16:16;3.00;87.30
45233;DHT22;30969;51.052;17.056;2023-03-11T09:21:21;3.00;87.40
45233;DHT22;30969;51.052;17.056;2023-03-11T09:26:25;3.00;87.50
45233;DHT22;30969;51.052;17.056;2023-03-11T09:31:28;3.00;87.50
45233;DHT22;30969;51.052;17.056;2023-03-11T09:36:33;3.00;87.00
45233;DHT22;30969;51.052;17.056;2023-03-11T09:41:41;3.00;86.90
45233;DHT22;30969;51.052;17.056;2023-03-11T09:47:20;3.00;85.60
45233;DHT22;30969;51.052;17.056;2023-03-11T09:52:31;3.00;85.40
45233;DHT22;30969;51.052;17.056;2023-03-11T09:57:36;2.90;85.30
45233;DHT22;30969;51.052;17.056;2023-03-11T10:02:40;2.80;85.60
45233;DHT22;30969;51.052;17.056;2023-03-11T10:07:52;2.80;87.40
45233;DHT22;30969;51.052;17.056;2023-03-11T10:13:03;2.80;89.10
45233;DHT22;30969;51.052;17.056;2023-03-11T10:18:33;2.80;89.30
45233;DHT22;30969;51.052;17.056;2023-03-11T10:23:54;2.90;88.50
45233;DHT22;30969;51.052;17.056;2023-03-11T10:29:06;3.00;87.60
45233;DHT22;30969;51.052;17.056;2023-03-11T10:34:17;3.00;86.60
45233;DHT22;30969;51.052;17.056;2023-03-11T10:39:24;3.10;86.30
45233;DHT22;30969;51.052;17.056;2023-03-11T10:44:33;3.10;83.60
45233;DHT22;30969;51.052;17.056;2023-03-11T10:49:37;3.20;83.00
45233;DHT22;30969;51.052;17.056;2023-03-11T10:54:43;3.30;83.60
45233;DHT22;30969;51.052;17.056;2023-03-11T10:59:50;3.40;82.30
45233;DHT22;30969;51.052;17.056;2023-03-11T11:10:27;3.50;84.20
45233;DHT22;30969;51.052;17.056;2023-03-11T11:15:34;3.50;83.10
45233;DHT22;30969;51.052;17.056;2023-03-11T11:20:38;3.60;81.20
45233;DHT22;30969;51.052;17.056;2023-03-11T11:25:56;3.70;81.00
45233;DHT22;30969;51.052;17.056;2023-03-11T11:31:01;3.80;79.70
45233;DHT22;30969;51.052;17.056;2023-03-11T11:36:12;3.70;78.90
45233;DHT22;30969;51.052;17.056;2023-03-11T11:41:20;3.70;78.60
45233;DHT22;30969;51.052;17.056;2023-03-11T11:46:27;3.70;78.90
45233;DHT22;30969;51.052;17.056;2023-03-11T11:51:37;3.70;77.90
45233;DHT22;30969;51.052;17.056;2023-03-11T11:56:43;3.60;80.20
45233;DHT22;30969;51.052;17.056;2023-03-11T12:01:57;3.60;80.30
45233;DHT22;30969;51.052;17.056;2023-03-11T12:07:11;3.60;78.30
45233;DHT22;30969;51.052;17.056;2023-03-11T12:12:24;3.70;78.60
45233;DHT22;30969;51.052;17.056;2023-03-11T12:17:30;3.70;76.50
45233;DHT22;30969;51.052;17.056;2023-03-11T12:28:19;3.90;73.70
45233;DHT22;30969;51.052;17.056;2023-03-11T12:33:29;3.90;73.50
45233;DHT22;30969;51.052;17.056;2023-03-11T12:38:36;3.90;72.00
45233;DHT22;30969;51.052;17.056;2023-03-11T12:44:00;3.90;71.30
45233;DHT22;30969;51.052;17.056;2023-03-11T12:49:11;4.10;72.90
45233;DHT22;30969;51.052;17.056;2023-03-11T12:54:27;4.30;73.30
45233;DHT22;30969;51.052;17.056;2023-03-11T12:59:52;4.50;71.60
45233;DHT22;30969;51.052;17.056;2023-03-11T13:05:05;4.40;70.20
45233;DHT22;30969;51.052;17.056;2023-03-11T13:10:33;4.10;74.10
45233;DHT22;30969;51.052;17.056;2023-03-11T13:15:38;3.60;74.50
45233;DHT22;30969;51.052;17.056;2023-03-11T13:20:48;3.50;76.70
45233;DHT22;30969;51.052;17.056;2023-03-11T13:31:40;3.80;72.00
45233;DHT22;30969;51.052;17.056;2023-03-11T13:36:56;3.90;70.70
45233;DHT22;30969;51.052;17.056;2023-03-11T13:42:14;3.90;69.60
45233;DHT22;30969;51.052;17.056;2023-03-11T13:47:22;3.80;71.00
45233;DHT22;30969;51.052;17.056;2023-03-11T13:52:30;3.80;73.30
45233;DHT22;30969;51.052;17.056;2023-03-11T13:57:35;3.90;73.20
45233;DHT22;30969;51.052;17.056;2023-03-11T14:02:44;4.00;72.20
45233;DHT22;30969;51.052;17.056;2023-03-11T14:07:48;4.20;70.50
45233;DHT22;30969;51.052;17.056;2023-03-11T14:13:04;4.30;69.70
45233;DHT22;30969;51.052;17.056;2023-03-11T14:18:28;4.30;67.20
45233;DHT22;30969;51.052;17.056;2023-03-11T14:23:34;4.10;64.30
45233;DHT22;30969;51.052;17.056;2023-03-11T14:28:40;4.00;64.00
45233;DHT22;30969;51.052;17.056;2023-03-11T14:33:55;3.90;63.80
45233;DHT22;30969;51.052;17.056;2023-03-11T14:38:59;3.80;63.40
45233;DHT22;30969;51.052;17.056;2023-03-11T14:44:03;3.70;63.10
45233;DHT22;30969;51.052;17.056;2023-03-11T14:49:12;3.70;63.80
45233;DHT22;30969;51.052;17.056;2023-03-11T14:54:21;3.60;63.70
45233;DHT22;30969;51.052;17.056;2023-03-11T14:59:27;3.70;64.70
45233;DHT22;30969;51.052;17.056;2023-03-11T15:04:37;3.60;64.20
45233;DHT22;30969;51.052;17.056;2023-03-11T15:09:45;3.50;64.50
45233;DHT22;30969;51.052;17.056;2023-03-11T15:14:50;3.60;65.10
45233;DHT22;30969;51.052;17.056;2023-03-11T15:19:55;3.70;65.30
45233;DHT22;30969;51.052;17.056;2023-03-11T15:25:00;3.70;64.90
45233;DHT22;30969;51.052;17.056;2023-03-11T15:30:18;3.80;63.10
45233;DHT22;30969;51.052;17.056;2023-03-11T15:35:24;3.70;62.10
45233;DHT22;30969;51.052;17.056;2023-03-11T15:40:29;3.80;62.50
45233;DHT22;30969;51.052;17.056;2023-03-11T15:45:46;3.70;62.50
45233;DHT22;30969;51.052;17.056;2023-03-11T15:50:53;3.80;62.20
45233;DHT22;30969;51.052;17.056;2023-03-11T15:56:00;3.80;61.00
45233;DHT22;30969;51.052;17.056;2023-03-11T16:01:09;3.80;60.80
45233;DHT22;30969;51.052;17.056;2023-03-11T16:06:14;3.90;60.30
45233;DHT22;30969;51.052;17.056;2023-03-11T16:11:17;3.90;60.60
45233;DHT22;30969;51.052;17.056;2023-03-11T16:16:21;4.00;60.80
45233;DHT22;30969;51.052;17.056;2023-03-11T16:21:32;4.00;59.70
45233;DHT22;30969;51.052;17.056;2023-03-11T16:26:37;3.90;59.80
45233;DHT22;30969;51.052;17.056;2023-03-11T16:31:40;4.00;60.20
45233;DHT22;30969;51.052;17.056;2023-03-11T16:36:45;4.00;60.20
45233;DHT22;30969;51.052;17.056;2023-03-11T16:41:49;4.10;59.60
45233;DHT22;30969;51.052;17.056;2023-03-11T16:46:52;4.00;59.10
45233;DHT22;30969;51.052;17.056;2023-03-11T16:51:57;4.00;59.40
45233;DHT22;30969;51.052;17.056;2023-03-11T16:57:01;4.00;60.40
45233;DHT22;30969;51.052;17.056;2023-03-11T17:02:05;4.00;59.20
45233;DHT22;30969;51.052;17.056;2023-03-11T17:07:10;4.00;58.70
45233;DHT22;30969;51.052;17.056;2023-03-11T17:12:14;3.90;58.00
45233;DHT22;30969;51.052;17.056;2023-03-11T17:17:20;4.00;58.30
45233;DHT22;30969;51.052;17.056;2023-03-11T17:22:25;4.10;58.60
45233;DHT22;30969;51.052;17.056;2023-03-11T17:27:28;4.20;58.70
45233;DHT22;30969;51.052;17.056;2023-03-11T17:32:34;4.20;58.90
45233;DHT22;30969;51.052;17.056;2023-03-11T17:37:38;4.20;58.70
45233;DHT22;30969;51.052;17.056;2023-03-11T17:42:42;4.20;59.00
45233;DHT22;30969;51.052;17.056;2023-03-11T17:47:45;4.20;59.00
45233;DHT22;30969;51.052;17.056;2023-03-11T17:52:50;4.20;59.70
45233;DHT22;30969;51.052;17.056;2023-03-11T17:57:54;4.20;61.90
45233;DHT22;30969;51.052;17.056;2023-03-11T18:02:58;4.20;63.10
45233;DHT22;30969;51.052;17.056;2023-03-11T18:08:05;4.30;64.80
45233;DHT22;30969;51.052;17.056;2023-03-11T18:13:10;4.40;65.40
45233;DHT22;30969;51.052;17.056;2023-03-11T18:18:13;4.40;66.50
45233;DHT22;30969;51.052;17.056;2023-03-11T18:23:18;4.40;67.50
45233;DHT22;30969;51.052;17.056;2023-03-11T18:28:22;4.10;68.80
45233;DHT22;30969;51.052;17.056;2023-03-11T18:33:25;4.00;68.90
45233;DHT22;30969;51.052;17.056;2023-03-11T18:38:30;3.90;69.20
45233;DHT22;30969;51.052;17.056;2023-03-11T18:43:34;3.90;69.30
45233;DHT22;30969;51.052;17.056;2023-03-11T18:48:38;3.90;69.50
45233;DHT22;30969;51.052;17.056;2023-03-11T18:53:43;3.80;69.80
45233;DHT22;30969;51.052;17.056;2023-03-11T18:58:46;3.80;70.00
45233;DHT22;30969;51.052;17.056;2023-03-11T19:03:51;3.70;70.30
45233;DHT22;30969;51.052;17.056;2023-03-11T19:08:57;3.80;70.30
45233;DHT22;30969;51.052;17.056;2023-03-11T19:14:02;3.70;71.00
45233;DHT22;30969;51.052;17.056;2023-03-11T19:19:05;3.70;71.00
45233;DHT22;30969;51.052;17.056;2023-03-11T19:24:14;3.70;71.30
45233;DHT22;30969;51.052;17.056;2023-03-11T19:29:19;3.60;71.50
45233;DHT22;30969;51.052;17.056;2023-03-11T19:34:25;3.40;71.70
45233;DHT22;30969;51.052;17.056;2023-03-11T19:39:31;3.30;72.00
45233;DHT22;30969;51.052;17.056;2023-03-11T19:44:35;3.30;72.40
45233;DHT22;30969;51.052;17.056;2023-03-11T19:49:38;3.20;72.50
45233;DHT22;30969;51.052;17.056;2023-03-11T19:54:43;3.20;72.60
45233;DHT22;30969;51.052;17.056;2023-03-11T19:59:46;3.10;72.60
45233;DHT22;30969;51.052;17.056;2023-03-11T20:04:50;3.10;72.30
45233;DHT22;30969;51.052;17.056;2023-03-11T20:09:55;3.10;72.00
45233;DHT22;30969;51.052;17.056;2023-03-11T20:14:59;3.00;71.70
45233;DHT22;30969;51.052;17.056;2023-03-11T20:20:02;2.90;71.80
45233;DHT22;30969;51.052;17.056;2023-03-11T20:25:08;2.90;72.00
45233;DHT22;30969;51.052;17.056;2023-03-11T20:30:13;2.80;71.80
45233;DHT22;30969;51.052;17.056;2023-03-11T20:35:16;2.80;71.80
45233;DHT22;30969;51.052;17.056;2023-03-11T20:40:21;2.80;71.50
45233;DHT22;30969;51.052;17.056;2023-03-11T20:45:25;2.70;71.40
45233;DHT22;30969;51.052;17.056;2023-03-11T20:50:28;2.60;71.80
45233;DHT22;30969;51.052;17.056;2023-03-11T20:55:33;2.50;72.30
45233;DHT22;30969;51.052;17.056;2023-03-11T21:00:37;2.50;72.40
45233;DHT22;30969;51.052;17.056;2023-03-11T21:05:40;2.50;72.70
45233;DHT22;30969;51.052;17.056;2023-03-11T21:10:48;2.40;72.70
45233;DHT22;30969;51.052;17.056;2023-03-11T21:15:52;2.30;73.20
45233;DHT22;30969;51.052;17.056;2023-03-11T21:20:56;2.40;73.20
45233;DHT22;30969;51.052;17.056;2023-03-11T21:26:02;2.40;73.20
45233;DHT22;30969;51.052;17.056;2023-03-11T21:31:09;2.40;73.20
45233;DHT22;30969;51.052;17.056;2023-03-11T21:36:14;2.40;73.30
45233;DHT22;30969;51.052;17.056;2023-03-11T21:41:21;2.40;73.40
45233;DHT22;30969;51.052;17.056;2023-03-11T21:46:28;2.30;73.40
45233;DHT22;30969;51.052;17.056;2023-03-11T21:51:31;2.40;73.40
45233;DHT22;30969;51.052;17.056;2023-03-11T21:56:37;2.60;72.90
45233;DHT22;30969;51.052;17.056;2023-03-11T22:01:40;2.60;72.50
45233;DHT22;30969;51.052;17.056;2023-03-11T22:06:43;2.60;72.50
45233;DHT22;30969;51.052;17.056;2023-03-11T22:11:48;2.60;72.40
45233;DHT22;30969;51.052;17.056;2023-03-11T22:16:52;2.60;72.30
45233;DHT22;30969;51.052;17.056;2023-03-11T22:21:55;2.60;72.40
45233;DHT22;30969;51.052;17.056;2023-03-11T22:27:00;2.60;72.40
45233;DHT22;30969;51.052;17.056;2023-03-11T22:32:04;2.60;72.50
45233;DHT22;30969;51.052;17.056;2023-03-11T22:37:08;2.60;72.50
45233;DHT22;30969;51.052;17.056;2023-03-11T22:42:13;2.70;72.30
45233;DHT22;30969;51.052;17.056;2023-03-11T22:47:16;2.70;72.30
45233;DHT22;30969;51.052;17.056;2023-03-11T22:52:20;2.60;72.40
45233;DHT22;30969;51.052;17.056;2023-03-11T22:57:25;2.60;72.50
45233;DHT22;30969;51.052;17.056;2023-03-11T23:02:28;2.50;72.50
45233;DHT22;30969;51.052;17.056;2023-03-11T23:07:32;2.50;72.60
45233;DHT22;30969;51.052;17.056;2023-03-11T23:12:37;2.50;72.60
45233;DHT22;30969;51.052;17.056;2023-03-11T23:17:40;2.50;72.70
45233;DHT22;30969;51.052;17.056;2023-03-11T23:22:44;2.50;72.70
45233;DHT22;30969;51.052;17.056;2023-03-11T23:27:49;2.40;72.90
45233;DHT22;30969;51.052;17.056;2023-03-11T23:32:52;2.40;73.00
45233;DHT22;30969;51.052;17.056;2023-03-11T23:37:56;2.50;73.00
45233;DHT22;30969;51.052;17.056;2023-03-11T23:43:01;2.50;72.80
45233;DHT22;30969;51.052;17.056;2023-03-11T23:48:05;2.50;72.90
45233;DHT22;30969;51.052;17.056;2023-03-11T23:53:09;2.40;73.10
45233;DHT22;30969;51.052;17.056;2023-03-11T23:58:13;2.30;73.40
